createdAt,value
2017-10-15T00:01:39.116Z,15.20
2017-10-15T00:04:08.450Z,15.20
2017-10-15T00:06:45.556Z,15.20
2017-10-15T00:09:15.905Z,15.10
2017-10-15T00:11:51.087Z,15.10
2017-10-15T00:14:23.098Z,15.20
2017-10-15T00:16:53.762Z,15.10
2017-10-15T00:19:42.658Z,15.10
2017-10-15T00:22:26.964Z,15.10
2017-10-15T00:24:57.439Z,15.00
2017-10-15T00:27:26.454Z,15.00
2017-10-15T00:29:56.570Z,15.00
2017-10-15T00:32:29.740Z,14.90
2017-10-15T00:34:59.933Z,14.90
2017-10-15T00:37:31.300Z,15.00
2017-10-15T00:40:17.299Z,15.00
2017-10-15T00:42:50.024Z,15.00
2017-10-15T00:45:22.836Z,15.00
2017-10-15T00:47:53.288Z,14.90
2017-10-15T00:50:22.887Z,14.90
2017-10-15T00:53:12.102Z,14.90
2017-10-15T00:56:02.197Z,14.80
2017-10-15T00:58:34.082Z,14.80
2017-10-15T01:01:04.536Z,14.80
2017-10-15T01:03:34.835Z,14.70
2017-10-15T01:06:04.281Z,14.70
2017-10-15T01:08:35.258Z,14.70
2017-10-15T01:11:10.307Z,14.60
2017-10-15T01:13:45.549Z,14.70
2017-10-15T01:16:15.277Z,14.70
2017-10-15T01:18:51.633Z,14.70
2017-10-15T01:21:25.690Z,14.70
2017-10-15T01:23:55.098Z,14.70
2017-10-15T01:26:25.128Z,14.70
2017-10-15T01:28:55.105Z,14.60
2017-10-15T01:31:24.752Z,14.60
2017-10-15T01:33:54.703Z,14.60
2017-10-15T01:36:24.080Z,14.60
2017-10-15T01:38:53.408Z,14.50
2017-10-15T01:41:23.035Z,14.50
2017-10-15T01:43:56.549Z,14.50
2017-10-15T01:46:26.373Z,14.40
2017-10-15T01:48:58.435Z,14.40
2017-10-15T01:51:28.885Z,14.40
2017-10-15T01:53:58.735Z,14.40
2017-10-15T01:56:30.635Z,14.40
2017-10-15T01:59:07.403Z,14.30
2017-10-15T02:01:38.977Z,14.30
2017-10-15T02:04:09.636Z,14.30
2017-10-15T02:06:44.119Z,14.30
2017-10-15T02:09:13.512Z,14.40
2017-10-15T02:11:43.949Z,14.30
2017-10-15T02:14:13.881Z,14.30
2017-10-15T02:16:44.091Z,14.30
2017-10-15T02:19:14.933Z,14.30
2017-10-15T02:21:44.985Z,14.20
2017-10-15T02:24:15.323Z,14.20
2017-10-15T02:26:44.817Z,14.30
2017-10-15T02:29:15.041Z,14.30
2017-10-15T02:31:44.498Z,14.20
2017-10-15T02:34:16.470Z,14.30
2017-10-15T02:36:45.690Z,14.30
2017-10-15T02:39:16.670Z,14.30
2017-10-15T02:41:48.152Z,14.30
2017-10-15T02:44:18.671Z,14.20
2017-10-15T02:46:49.094Z,14.20
2017-10-15T02:49:18.607Z,14.20
2017-10-15T02:51:48.032Z,14.20
2017-10-15T02:54:18.640Z,14.10
2017-10-15T02:56:47.730Z,14.10
2017-10-15T02:59:16.868Z,14.00
2017-10-15T03:01:51.601Z,14.00
2017-10-15T03:48:28.339Z,13.70
2017-10-15T03:51:00.490Z,13.70
2017-10-15T03:53:32.865Z,13.70
2017-10-15T03:56:03.401Z,13.70
2017-10-15T03:58:34.218Z,13.70
2017-10-15T04:01:04.093Z,13.60
2017-10-15T04:03:34.325Z,13.60
2017-10-15T04:06:04.169Z,13.60
2017-10-15T04:08:34.695Z,13.60
2017-10-15T04:11:04.888Z,13.60
2017-10-15T04:13:35.207Z,13.60
2017-10-15T04:16:05.562Z,13.60
2017-10-15T04:18:36.451Z,13.50
2017-10-15T04:21:07.377Z,13.50
2017-10-15T04:23:38.798Z,13.50
2017-10-15T04:26:09.144Z,13.50
2017-10-15T04:28:39.680Z,13.50
2017-10-15T04:31:09.742Z,13.50
2017-10-15T04:33:39.711Z,13.40
2017-10-15T04:36:10.136Z,13.50
2017-10-15T04:38:41.590Z,13.40
2017-10-15T04:41:11.679Z,13.50
2017-10-15T04:43:42.586Z,13.40
2017-10-15T04:46:13.643Z,13.40
2017-10-15T04:48:43.709Z,13.40
2017-10-15T04:51:14.710Z,13.40
2017-10-15T04:53:44.750Z,13.30
2017-10-15T04:56:14.729Z,13.30
2017-10-15T04:58:46.558Z,13.20
2017-10-15T05:01:17.155Z,13.20
2017-10-15T05:03:48.040Z,13.30
2017-10-15T05:06:20.222Z,13.20
2017-10-15T05:08:51.140Z,13.20
2017-10-15T05:11:21.141Z,13.20
2017-10-15T05:13:50.948Z,13.20
2017-10-15T05:16:21.689Z,13.10
2017-10-15T05:18:51.719Z,13.10
2017-10-15T05:21:21.772Z,13.10
2017-10-15T05:23:54.002Z,13.10
2017-10-15T05:26:24.089Z,13.10
2017-10-15T05:28:54.611Z,13.00
2017-10-15T05:31:24.666Z,13.10
2017-10-15T05:33:55.295Z,13.10
2017-10-15T05:36:26.077Z,13.10
2017-10-15T05:38:57.353Z,13.00
2017-10-15T05:41:27.685Z,13.00
2017-10-15T05:43:57.824Z,13.10
2017-10-15T05:46:28.423Z,13.10
2017-10-15T05:48:58.247Z,13.10
2017-10-15T05:51:28.139Z,13.10
2017-10-15T05:53:58.599Z,13.10
2017-10-15T05:56:29.066Z,13.00
2017-10-15T05:59:00.978Z,13.00
2017-10-15T06:01:31.000Z,13.00
2017-10-15T06:04:01.127Z,13.00
2017-10-15T06:06:32.460Z,13.00
2017-10-15T06:09:02.453Z,13.00
2017-10-15T06:11:32.462Z,13.00
2017-10-15T06:14:02.438Z,13.00
2017-10-15T06:16:43.347Z,13.00
2017-10-15T06:19:13.484Z,13.00
2017-10-15T06:21:44.553Z,13.00
2017-10-15T06:24:15.611Z,13.00
2017-10-15T06:26:46.996Z,13.00
2017-10-15T06:29:16.837Z,13.00
2017-10-15T06:31:46.816Z,13.00
2017-10-15T06:34:16.832Z,13.00
2017-10-15T06:36:49.500Z,13.10
2017-10-15T06:39:21.935Z,13.20
2017-10-15T06:41:51.839Z,13.20
2017-10-15T06:44:21.849Z,13.20
2017-10-15T06:46:52.007Z,13.20
2017-10-15T06:49:22.311Z,13.30
2017-10-15T06:51:54.670Z,13.30
2017-10-15T06:54:24.867Z,13.30
2017-10-15T06:56:54.197Z,13.40
2017-10-15T06:59:24.403Z,13.40
2017-10-15T07:01:53.767Z,13.40
2017-10-15T07:04:23.935Z,13.50
2017-10-15T07:06:56.174Z,13.50
2017-10-15T07:09:25.531Z,13.50
2017-10-15T07:11:55.009Z,13.60
2017-10-15T07:14:25.318Z,13.60
2017-10-15T07:16:54.695Z,13.70
2017-10-15T07:19:26.278Z,13.90
2017-10-15T07:21:55.924Z,13.80
2017-10-15T07:24:27.092Z,13.80
2017-10-15T07:26:56.967Z,13.80
2017-10-15T07:29:27.128Z,13.90
2017-10-15T07:31:56.600Z,13.90
2017-10-15T07:34:27.095Z,13.90
2017-10-15T07:37:04.722Z,13.90
2017-10-15T07:39:34.780Z,14.00
2017-10-15T07:42:04.653Z,14.00
2017-10-15T07:44:35.179Z,14.10
2017-10-15T07:47:06.022Z,14.20
2017-10-15T07:49:36.649Z,14.20
2017-10-15T07:52:06.621Z,14.20
2017-10-15T07:54:37.542Z,14.30
2017-10-15T07:57:08.278Z,14.30
2017-10-15T07:59:38.480Z,14.30
2017-10-15T08:02:08.328Z,14.40
2017-10-15T08:04:38.036Z,14.50
2017-10-15T08:07:09.540Z,14.50
2017-10-15T08:09:42.274Z,14.70
2017-10-15T08:12:12.755Z,14.70
2017-10-15T08:14:43.896Z,14.70
2017-10-15T08:17:14.228Z,14.70
2017-10-15T08:19:44.139Z,14.80
2017-10-15T08:22:15.025Z,14.90
2017-10-15T08:24:45.635Z,14.90
2017-10-15T08:27:15.536Z,14.90
2017-10-15T08:29:45.405Z,15.00
2017-10-15T08:32:16.957Z,15.10
2017-10-15T08:34:48.591Z,15.10
2017-10-15T08:37:19.824Z,15.30
2017-10-15T08:39:51.632Z,15.30
2017-10-15T08:42:22.153Z,15.40
2017-10-15T08:44:53.460Z,15.40
2017-10-15T08:47:23.449Z,15.50
2017-10-15T08:49:54.372Z,15.60
2017-10-15T08:52:28.332Z,15.70
2017-10-15T08:55:00.075Z,15.80
2017-10-15T08:57:35.523Z,15.80
2017-10-15T09:00:06.475Z,16.00
2017-10-15T09:02:39.871Z,16.10
2017-10-15T09:05:09.706Z,16.10
2017-10-15T09:07:43.301Z,16.20
2017-10-15T09:10:13.023Z,16.20
2017-10-15T09:12:43.351Z,16.40
2017-10-15T09:15:14.416Z,16.40
2017-10-15T09:17:46.961Z,16.60
2017-10-15T09:20:17.600Z,16.70
2017-10-15T09:22:47.814Z,16.70
2017-10-15T09:25:18.358Z,17.00
2017-10-15T09:27:49.366Z,17.10
2017-10-15T09:30:21.031Z,17.20
2017-10-15T09:32:51.793Z,17.20
2017-10-15T09:36:50.525Z,17.30
2017-10-15T09:39:43.429Z,17.40
2017-10-15T09:45:13.329Z,17.70
2017-10-15T09:47:43.745Z,17.90
2017-10-15T09:50:14.696Z,17.90
2017-10-15T09:52:46.615Z,18.20
2017-10-15T09:55:17.433Z,18.20
2017-10-15T09:57:52.159Z,18.30
2017-10-15T10:00:24.067Z,18.40
2017-10-15T10:02:55.210Z,18.70
2017-10-15T10:05:25.189Z,18.70
2017-10-15T10:07:55.849Z,18.80
2017-10-15T10:10:29.481Z,19.00
2017-10-15T10:13:01.189Z,19.40
2017-10-15T10:15:32.035Z,20.70
2017-10-15T10:18:15.126Z,22.50
2017-10-15T10:20:51.540Z,24.40
2017-10-15T10:23:24.647Z,26.20
2017-10-15T10:25:54.995Z,26.10
2017-10-15T10:28:26.702Z,26.00
2017-10-15T10:30:57.703Z,25.90
2017-10-15T10:33:27.451Z,25.90
2017-10-15T10:35:57.908Z,27.40
2017-10-15T10:38:27.502Z,26.70
2017-10-15T10:44:22.577Z,27.60
2017-10-15T10:46:52.735Z,27.70
2017-10-15T10:49:26.208Z,28.60
2017-10-15T10:51:58.521Z,28.50
2017-10-15T10:54:30.826Z,28.80
2017-10-15T10:57:04.374Z,28.80
2017-10-15T10:59:34.441Z,28.60
2017-10-15T11:02:05.595Z,28.40
2017-10-15T11:04:35.725Z,28.00
2017-10-15T11:07:07.087Z,28.80
2017-10-15T11:09:38.379Z,28.30
2017-10-15T11:12:08.978Z,28.30
2017-10-15T11:14:39.989Z,29.80
2017-10-15T11:17:18.287Z,29.80
2017-10-15T11:19:52.424Z,29.70
2017-10-15T11:22:25.170Z,30.20
2017-10-15T11:25:02.706Z,29.40
2017-10-15T11:27:35.861Z,28.40
2017-10-15T11:30:11.656Z,28.40
2017-10-15T11:32:46.336Z,29.30
2017-10-15T11:35:24.788Z,29.20
2017-10-15T11:37:57.533Z,30.60
2017-10-15T11:40:41.243Z,28.70
2017-10-15T11:43:26.887Z,29.00
2017-10-15T11:45:58.134Z,29.00
2017-10-15T11:48:31.645Z,29.50
2017-10-15T11:51:07.139Z,29.50
2017-10-15T11:53:41.401Z,30.60
2017-10-15T11:56:15.645Z,30.60
2017-10-15T11:58:51.164Z,31.00
2017-10-15T12:01:21.751Z,31.00
2017-10-15T12:03:54.065Z,31.00
2017-10-15T12:06:31.605Z,30.20
2017-10-15T12:09:03.183Z,31.00
2017-10-15T12:11:35.289Z,30.90
2017-10-15T12:14:30.743Z,31.00
2017-10-15T12:24:46.074Z,29.20
2017-10-15T12:27:29.123Z,29.20
2017-10-15T12:30:04.115Z,29.80
2017-10-15T12:32:42.834Z,30.10
2017-10-15T12:35:13.880Z,30.20
2017-10-15T12:38:12.573Z,30.40
2017-10-15T12:41:07.393Z,29.90
2017-10-15T12:43:42.077Z,28.80
2017-10-15T12:46:16.426Z,28.90
2017-10-15T12:48:57.073Z,29.10
2017-10-15T12:51:31.115Z,30.10
2017-10-15T12:54:06.581Z,30.50
2017-10-15T12:56:39.379Z,30.60
2017-10-15T12:59:11.816Z,29.60
2017-10-15T13:04:31.487Z,31.10
2017-10-15T13:07:06.444Z,32.60
2017-10-15T13:10:04.333Z,32.60
2017-10-15T13:12:54.311Z,33.70
2017-10-15T13:15:48.387Z,33.70
2017-10-15T13:18:23.818Z,32.40
2017-10-15T13:23:37.403Z,31.00
2017-10-15T13:26:09.640Z,30.30
2017-10-15T13:28:43.277Z,30.40
2017-10-15T13:31:20.244Z,31.60
2017-10-15T13:34:00.412Z,33.40
2017-10-15T13:36:34.703Z,33.10
2017-10-15T13:39:05.617Z,33.10
2017-10-15T13:41:40.384Z,35.10
2017-10-15T13:44:13.774Z,33.70
2017-10-15T13:46:46.019Z,32.20
2017-10-15T13:49:20.339Z,31.80
2017-10-15T13:51:53.425Z,31.80
2017-10-15T13:54:28.288Z,32.40
2017-10-15T13:57:01.003Z,32.40
2017-10-15T13:59:39.638Z,31.10
2017-10-15T14:02:19.000Z,31.90
2017-10-15T14:05:21.729Z,32.70
2017-10-15T14:08:14.699Z,32.50
2017-10-15T14:10:48.476Z,29.30
2017-10-15T14:13:19.047Z,29.20
2017-10-15T14:15:50.460Z,27.90
2017-10-15T14:18:23.198Z,27.90
2017-10-15T14:20:53.718Z,26.30
2017-10-15T14:23:23.767Z,25.50
2017-10-15T14:25:58.096Z,25.20
2017-10-15T14:28:29.903Z,24.90
2017-10-15T14:33:53.379Z,24.40
2017-10-15T14:36:30.097Z,24.10
2017-10-15T14:39:02.276Z,24.00
2017-10-15T14:41:34.581Z,23.90
2017-10-15T14:44:48.942Z,23.90
2017-10-15T14:47:48.783Z,23.80
2017-10-15T14:50:26.146Z,23.80
2017-10-15T14:53:04.465Z,23.80
2017-10-15T14:55:54.237Z,23.80
2017-10-15T14:58:26.330Z,23.70
2017-10-15T15:00:58.023Z,23.70
2017-10-15T15:03:29.571Z,23.60
2017-10-15T15:06:00.909Z,23.50
2017-10-15T15:08:41.504Z,23.50
2017-10-15T15:11:16.921Z,23.50
2017-10-15T15:13:49.993Z,23.50
2017-10-15T15:16:35.564Z,23.50
2017-10-15T15:22:51.531Z,23.40
2017-10-15T15:25:37.485Z,23.40
2017-10-15T15:28:09.918Z,23.30
2017-10-15T15:30:57.360Z,23.40
2017-10-15T15:33:43.023Z,23.30
2017-10-15T15:36:26.046Z,23.20
2017-10-15T15:38:59.491Z,23.10
2017-10-15T15:41:32.642Z,23.10
2017-10-15T15:44:07.015Z,23.00
2017-10-15T15:47:01.132Z,23.00
2017-10-15T15:49:49.391Z,22.90
2017-10-15T15:52:28.749Z,22.90
2017-10-15T15:55:06.717Z,22.90
2017-10-15T15:57:40.785Z,22.80
2017-10-15T16:00:13.060Z,22.80
2017-10-15T16:09:39.571Z,22.70
2017-10-15T16:12:11.204Z,22.50
2017-10-15T16:14:46.185Z,22.40
2017-10-15T16:17:22.805Z,22.30
2017-10-15T16:20:10.748Z,22.20
2017-10-15T16:22:59.530Z,22.10
2017-10-15T16:25:32.698Z,22.00
2017-10-15T16:28:17.206Z,22.00
2017-10-15T16:30:50.740Z,21.90
2017-10-15T16:33:26.557Z,21.80
2017-10-15T16:36:00.627Z,21.70
2017-10-15T16:38:39.283Z,21.70
2017-10-15T16:41:12.462Z,21.60
2017-10-15T16:43:44.095Z,21.60
2017-10-15T16:46:16.008Z,21.60
2017-10-15T16:48:47.669Z,21.50
2017-10-15T16:51:28.799Z,21.50
2017-10-15T16:54:07.113Z,21.40
2017-10-15T16:56:46.312Z,21.40
2017-10-15T16:59:42.439Z,21.30
2017-10-15T17:02:21.249Z,21.10
2017-10-15T17:05:11.995Z,21.00
2017-10-15T17:13:59.446Z,20.80
2017-10-15T17:16:33.732Z,20.70
2017-10-15T17:19:06.631Z,20.60
2017-10-15T17:21:57.387Z,20.60
2017-10-15T17:25:55.134Z,20.50
2017-10-15T17:28:40.908Z,20.40
2017-10-15T17:31:14.883Z,20.30
2017-10-15T17:34:02.857Z,20.30
2017-10-15T17:36:58.201Z,20.20
2017-10-15T17:43:21.000Z,20.00
2017-10-15T17:46:13.974Z,19.90
2017-10-15T17:56:29.806Z,19.70
2017-10-15T17:59:27.239Z,19.70
2017-10-15T18:02:07.853Z,19.70
2017-10-15T18:04:38.820Z,19.60
2017-10-15T18:10:10.993Z,19.60
2017-10-15T18:12:50.364Z,19.60
2017-10-15T18:15:29.343Z,19.60
2017-10-15T18:23:44.527Z,19.50
2017-10-15T18:26:38.901Z,19.50
2017-10-15T18:36:48.765Z,19.30
2017-10-15T18:39:42.387Z,19.20
2017-10-15T18:42:18.511Z,19.10
2017-10-15T18:45:00.334Z,19.10
2017-10-15T18:47:35.552Z,19.00
2017-10-15T18:50:10.465Z,18.90
2017-10-15T18:52:42.865Z,19.00
2017-10-15T18:55:14.252Z,18.90
2017-10-15T18:58:01.966Z,18.90
2017-10-15T19:00:33.991Z,18.90
2017-10-15T19:03:07.843Z,18.90
2017-10-15T19:05:43.622Z,18.90
2017-10-15T19:08:15.645Z,18.80
2017-10-15T19:10:57.567Z,18.70
2017-10-15T19:13:51.620Z,18.60
2017-10-15T19:16:29.551Z,18.50
2017-10-15T19:19:00.617Z,18.40
2017-10-15T19:21:40.468Z,18.30
2017-10-15T19:24:13.135Z,18.30
2017-10-15T19:26:49.817Z,18.20
2017-10-15T19:29:24.918Z,18.20
2017-10-15T19:31:56.574Z,18.20
2017-10-15T19:34:40.945Z,18.20
2017-10-15T19:37:21.159Z,18.10
2017-10-15T19:42:32.669Z,18.10
2017-10-15T19:45:06.178Z,18.10
2017-10-15T19:48:26.816Z,18.00
2017-10-15T19:51:20.026Z,18.00
2017-10-15T19:54:06.565Z,17.90
2017-10-15T19:58:12.726Z,17.90
2017-10-15T20:00:53.380Z,17.90
2017-10-15T20:03:41.848Z,17.80
2017-10-15T20:06:13.925Z,17.80
2017-10-15T20:08:47.312Z,17.80
2017-10-15T20:14:18.652Z,17.70
2017-10-15T20:16:52.076Z,17.70
2017-10-15T20:19:26.057Z,17.60
2017-10-15T20:22:07.507Z,17.60
2017-10-15T20:25:02.863Z,17.50
2017-10-15T20:27:38.063Z,17.40
2017-10-15T20:30:16.856Z,17.40
2017-10-15T20:36:20.861Z,17.30
2017-10-15T20:41:45.731Z,17.30
2017-10-15T20:44:18.465Z,17.30
2017-10-15T20:46:52.829Z,17.30
2017-10-15T20:49:41.025Z,17.30
2017-10-15T20:52:15.567Z,17.20
2017-10-15T20:55:14.789Z,17.20
2017-10-15T20:57:51.959Z,17.10
2017-10-15T21:00:31.986Z,17.10
2017-10-15T21:08:53.790Z,17.10
2017-10-15T21:11:27.396Z,17.10
2017-10-15T21:14:13.265Z,17.10
2017-10-15T21:20:14.330Z,17.10
2017-10-15T21:30:57.831Z,16.90
2017-10-15T21:33:32.038Z,16.80
2017-10-15T21:36:09.207Z,16.70
2017-10-15T21:38:51.439Z,16.80
2017-10-15T21:49:07.905Z,16.70
2017-10-15T21:51:45.567Z,16.60
2017-10-15T21:54:21.146Z,16.60
2017-10-15T21:56:54.341Z,16.70
2017-10-15T21:59:30.104Z,16.70
2017-10-15T22:01:59.505Z,16.60
2017-10-15T22:04:49.646Z,16.60
2017-10-15T22:10:51.157Z,16.70
2017-10-15T22:13:33.004Z,16.60
2017-10-15T22:16:24.407Z,16.50
2017-10-15T22:19:06.802Z,16.40
2017-10-15T22:22:01.847Z,16.30
2017-10-15T22:24:52.288Z,16.20
2017-10-15T22:27:47.451Z,16.20
2017-10-15T22:30:32.567Z,16.10
2017-10-15T22:33:02.919Z,16.10
2017-10-15T22:35:32.822Z,16.10
2017-10-15T22:38:03.971Z,16.10
2017-10-15T22:40:36.175Z,16.10
2017-10-15T22:43:12.877Z,16.00
2017-10-15T22:45:46.211Z,16.00
2017-10-15T22:48:18.330Z,16.00
2017-10-15T22:50:48.978Z,16.00
2017-10-15T22:53:23.070Z,15.90
2017-10-15T22:56:08.285Z,15.90
2017-10-15T22:58:43.937Z,15.90
2017-10-15T23:01:22.656Z,15.90
2017-10-15T23:04:07.640Z,15.90
2017-10-15T23:06:50.133Z,15.80
2017-10-15T23:09:34.167Z,15.80
2017-10-15T23:12:07.402Z,15.70
2017-10-15T23:17:28.560Z,15.70
2017-10-15T23:20:01.779Z,15.60
2017-10-15T23:22:38.046Z,15.50
2017-10-15T23:25:07.961Z,15.50
2017-10-15T23:27:55.690Z,15.40
2017-10-15T23:33:40.833Z,15.40
2017-10-15T23:36:24.295Z,15.40
2017-10-15T23:39:06.443Z,15.40
2017-10-15T23:41:36.424Z,15.40
2017-10-15T23:44:06.644Z,15.40
2017-10-15T23:46:42.802Z,15.30
2017-10-15T23:49:28.905Z,15.40
2017-10-15T23:52:09.744Z,15.40
2017-10-15T23:54:39.554Z,15.40
2017-10-15T23:57:09.709Z,15.40
2017-10-15T23:59:42.989Z,15.40
